Flight Track Log - Related Links

Times and Time Zones

All times are in EDT time to prevent confusion due to time zone crossing. See the ANA1188 flight status page for this flight to view local times or setup timezone preferences in your user account.

Time Position Orientation Groundspeed Altitude Reporting Facility
EDT Latitude Longitude Course Direction KTS MPH feet Rate Location/Type
05:06AM 25.5151 122.1843 52° Northeast  Level Estimated
05:07AM 25.5891 122.2902 52° Northeast  Level Estimated
05:08AM 25.6630 122.3962 52° Northeast  Level Estimated
05:09AM 25.7369 122.5024 52° Northeast  Level Estimated
05:10AM 25.8107 122.6087 52° Northeast  Level Estimated
05:11AM 25.8844 122.7151 52° Northeast  Level Estimated
05:12AM 25.9580 122.8216 52° Northeast  Level Estimated
05:13AM 26.0316 122.9283 52° Northeast  Level Estimated
05:14AM 26.1050 123.0352 53° Northeast  Level Estimated
05:15AM 26.1784 123.1421 53° Northeast  Level Estimated
05:16AM 26.2517 123.2492 53° Northeast  Level Estimated
05:17AM 26.3250 123.3564 53° Northeast  Level Estimated
05:18AM 26.3981 123.4638 53° Northeast  Level Estimated
05:19AM 26.4712 123.5713 53° Northeast  Level Estimated
05:20AM 26.5442 123.6789 53° Northeast  Level Estimated
05:21AM 26.6171 123.7867 53° Northeast  Level Estimated
05:22AM 26.6899 123.8946 53° Northeast  Level Estimated
05:23AM 26.7627 124.0026 53° Northeast  Level Estimated
05:24AM 26.8353 124.1108 53° Northeast  Level Estimated
05:25AM 26.9079 124.2192 53° Northeast  Level Estimated
05:26AM 26.9804 124.3276 53° Northeast  Level Estimated
05:27AM 27.0528 124.4362 53° Northeast  Level Estimated
05:28AM 27.1252 124.5450 53° Northeast  Level Estimated
05:29AM 27.1974 124.6538 53° Northeast  Level Estimated
05:30AM 27.2696 124.7629 53° Northeast  Level Estimated
05:31AM 27.3417 124.8720 53° Northeast  Level Estimated
05:32AM 27.4137 124.9814 53° Northeast  Level Estimated
05:33AM 27.4856 125.0908 53° Northeast  Level Estimated
05:34AM 27.5574 125.2004 54° Northeast  Level Estimated
05:35AM 27.6291 125.3101 54° Northeast  Level Estimated
05:36AM 27.7008 125.4200 54° Northeast  Level Estimated
05:37AM 27.7723 125.5300 54° Northeast  Level Estimated
05:38AM 27.8438 125.6402 54° Northeast  Level Estimated
05:39AM 27.9152 125.7505 54° Northeast  Level Estimated
05:40AM 27.9865 125.8610 54° Northeast  Level Estimated
05:41AM 28.0577 125.9716 54° Northeast  Level Estimated
05:42AM 28.1289 126.0824 54° Northeast  Level Estimated
05:43AM 28.1999 126.1933 54° Northeast  Level Estimated
05:44AM 28.2708 126.3043 54° Northeast  Level Estimated
05:45AM 28.3417 126.4155 54° Northeast  Level Estimated
05:46AM 28.4125 126.5268 54° Northeast  Level Estimated
05:47AM 28.4831 126.6383 54° Northeast  Level Estimated
05:48AM 28.5537 126.7500 54° Northeast  Level Estimated
05:49AM 28.6242 126.8618 54° Northeast  Level Estimated
05:50AM 28.6946 126.9737 54° Northeast  Level Estimated
05:51AM 28.7649 127.0858 54° Northeast  Level Estimated
05:52AM 28.8351 127.1980 54° Northeast  Level Estimated
05:53AM 28.9053 127.3104 55° Northeast  Level Estimated
05:54AM 28.9753 127.4230 55° Northeast  Level Estimated
05:55AM 29.0452 127.5357 55° Northeast  Level Estimated
05:56AM 29.1151 127.6485 55° Northeast  Level Estimated
05:57AM 29.1848 127.7615 55° Northeast  Level Estimated
05:58AM 29.2545 127.8747 55° Northeast  Level Estimated
05:59AM 29.3240 127.9880 55° Northeast  Level Estimated
06:00AM 29.3935 128.1015 55° Northeast  Level Estimated
06:01AM 29.4629 128.2151 55° Northeast  Level Estimated
06:02AM 29.5321 128.3289 55° Northeast  Level Estimated
06:03AM 29.6013 128.4428 55° Northeast  Level Estimated
06:04AM 29.6704 128.5569 55° Northeast  Level Estimated
06:05AM 29.7393 128.6711 55° Northeast  Level Estimated
06:06AM 29.8082 128.7856 55° Northeast  Level Estimated
06:07AM 29.8770 128.9001 55° Northeast  Level Estimated
06:08AM 29.9457 129.0148 55° Northeast  Level Estimated
06:09AM 30.0143 129.1297 55° Northeast  Level Estimated
06:10AM 30.0828 129.2448 55° Northeast  Level Estimated
06:11AM 30.1511 129.3600 56° Northeast  Level Estimated
06:12AM 30.2194 129.4753 56° Northeast  Level Estimated
06:13AM 30.2876 129.5908 56° Northeast  Level Estimated
06:14AM 30.3557 129.7065 56° Northeast  Level Estimated
06:15AM 30.4236 129.8223 56° Northeast  Level Estimated
06:16AM 30.4915 129.9383 56° Northeast  Level Estimated
06:17AM 30.5593 130.0545 56° Northeast  Level Estimated
06:18AM 30.6269 130.1708 56° Northeast  Level Estimated
06:19AM 30.6945 130.2873 56° Northeast  Level Estimated
06:20AM 30.7620 130.4039 56° Northeast  Level Estimated
06:21AM 30.8293 130.5208 56° Northeast  Level Estimated
06:22AM 30.8966 130.6377 56° Northeast  Level Estimated
06:23AM 30.9637 130.7549 56° Northeast  Level Estimated
06:24AM 31.0308 130.8722 56° Northeast  Level Estimated
06:25AM 31.0977 130.9897 56° Northeast  Level Estimated
06:26AM 31.1645 131.1073 56° Northeast  Level Estimated
06:27AM 31.2312 131.2251 56° Northeast  Level Estimated
06:28AM 31.2978 131.3431 57° Northeast  Level Estimated
06:29AM 31.3643 131.4612 57° Northeast  Level Estimated
06:30AM 31.4307 131.5795 57° Northeast  Level Estimated
06:31AM 31.4970 131.6980 57° Northeast  Level Estimated
06:32AM 31.5632 131.8166 57° Northeast  Level Estimated
06:33AM 31.6293 131.9354 57° Northeast  Level Estimated
06:34AM 31.6952 132.0544 57° Northeast  Level Estimated
06:35AM 31.7611 132.1735 57° Northeast  Level Estimated
06:36AM 31.8268 132.2928 57° Northeast  Level Estimated
06:37AM 31.8924 132.4123 57° Northeast  Level Estimated
06:38AM 31.9580 132.5320 57° Northeast  Level Estimated
06:39AM 32.0233 132.6518 57° Northeast  Level Estimated
06:40AM 32.0886 132.7718 57° Northeast  Level Estimated
06:41AM 32.1538 132.8920 57° Northeast  Level Estimated
06:42AM 32.2189 133.0123 57° Northeast  Level Estimated
06:43AM 32.2838 133.1328 57° Northeast  Level Estimated
06:44AM 32.3486 133.2535 58° Northeast  Level Estimated
06:45AM 32.4133 133.3743 58° Northeast  Level Estimated
06:46AM 32.4780 133.4954 58° Northeast  Level Estimated
06:47AM 32.5424 133.6166 58° Northeast  Level Estimated
06:48AM 32.6068 133.7380 58° Northeast  Level Estimated
06:49AM 32.6711 133.8595 58° Northeast  Level Estimated
06:50AM 32.7352 133.9812 58° Northeast  Level Estimated
06:51AM 32.7992 134.1031 58° Northeast  Level Estimated
06:52AM 32.8631 134.2252 58° Northeast  Level Estimated
06:53AM 32.9269 134.3475 58° Northeast  Level Estimated
06:54AM 32.9905 134.4699 58° Northeast  Level Estimated
06:55AM 33.0541 134.5925 58° Northeast  Level Estimated
06:56AM 33.1175 134.7153 58° Northeast  Level Estimated
06:57AM 33.1808 134.8383 58° Northeast  Level Estimated
06:58AM 33.2440 134.9614 58° Northeast  Level Estimated
06:59AM 33.3070 135.0847 59° Northeast  Level Estimated
07:00AM 33.3700 135.2082 59° Northeast  Level Estimated
07:01AM 33.4328 135.3319 59° Northeast  Level Estimated
07:02AM 33.4955 135.4557 59° Northeast  Level Estimated
07:03AM 33.5580 135.5797 59° Northeast  Level Estimated
07:04AM 33.6205 135.7040 59° Northeast  Level Estimated
07:05AM 33.6828 135.8284 59° Northeast  Level Estimated
07:06AM 33.7450 135.9529 59° Northeast  Level Estimated
07:07AM 33.8070 136.0777 59° Northeast  Level Estimated
07:07AM 33.4496 136.8290 76° East 474 545 29,000  Level FlightAware ADS-B
07:07AM 33.4681 136.9185 76° East 474 545 29,000  Level FlightAware ADS-B
07:08AM 33.4913 137.0304 76° East 475 547 29,000  Level FlightAware ADS-B
07:09AM 33.5126 137.1339 76° East 476 548 29,000  Level FlightAware ADS-B
07:10AM 33.5374 137.2331 65° Northeast 456 525 29,000  Level FlightAware ADS-B
07:10AM 33.5736 137.3227 65° Northeast 447 514 29,000  Level FlightAware ADS-B
07:11AM 33.6105 137.4151 65° Northeast 445 512 29,000  Level FlightAware ADS-B
07:12AM 33.6450 137.5021 65° Northeast 447 514 29,000  Level FlightAware ADS-B
07:12AM 33.6753 137.5788 65° Northeast 449 517 29,000  Level FlightAware ADS-B
07:13AM 33.7160 137.6826 65° Northeast 451 519 29,000  Level FlightAware ADS-B
07:14AM 33.7505 137.7699 65° Northeast 452 520 29,000  Level FlightAware ADS-B
07:14AM 33.7858 137.8599 65° Northeast 454 522 29,000  Level FlightAware ADS-B
07:15AM 33.8230 137.9551 65° Northeast 453 521 29,000  Level FlightAware ADS-B
07:16AM 33.8612 138.0472 63° Northeast 451 519 29,000  Level FlightAware ADS-B
07:16AM 33.8987 138.1344 64° Northeast 446 513 29,000  Level FlightAware ADS-B
07:17AM 33.9349 138.2193 64° Northeast 445 512 29,000  Level FlightAware ADS-B
07:18AM 33.9749 138.3145 64° Northeast 445 512 29,000  Level FlightAware ADS-B
07:18AM 34.0248 138.4337 64° Northeast 443 510 29,000  Level FlightAware ADS-B
07:20AM 34.0838 138.5751 64° Northeast 442 509 29,000  Level FlightAware ADS-B
07:20AM 34.1223 138.6675 64° Northeast 443 510 29,000  Level FlightAware ADS-B
07:21AM 34.1719 138.7869 64° Northeast 442 509 29,000 -400 Level FlightAware ADS-B
07:22AM 34.2453 138.9648 65° Northeast 422 486 28,100 -789 Descending FlightAware ADS-B
07:23AM 34.2735 139.0331 65° Northeast 421 484 27,500 -1,125 Descending FlightAware ADS-B
07:24AM 34.2997 139.0968 65° Northeast 412 474 26,900 -1,250 Descending FlightAware ADS-B
07:24AM 34.3359 139.1832 64° Northeast 408 470 26,000 -1,393 Descending FlightAware ADS-B
07:24AM 34.3497 139.2125 61° Northeast 403 464 25,600 -1,500 Descending FlightAware ADS-B
07:25AM 34.3817 139.2751 57° Northeast 401 461 24,600 -1,607 Descending FlightAware ADS-B
07:25AM 34.3960 139.3024 57° Northeast 400 460 24,100 -2,000 Descending FlightAware ADS-B
07:26AM 34.4265 139.3591 57° Northeast 400 460 23,100 -2,000 Descending FlightAware ADS-B
07:26AM 34.4569 139.4150 57° Northeast 398 458 22,100 -2,308 Descending FlightAware ADS-B
07:27AM 34.4742 139.4469 58° Northeast 390 449 21,600 -1,636 Descending FlightAware ADS-B
07:27AM 34.4991 139.4931 57° Northeast 388 447 20,900 -1,455 Descending FlightAware ADS-B
07:28AM 34.5305 139.5522 57° Northeast 379 436 20,000 -1,938 Descending FlightAware ADS-B
07:28AM 34.5703 139.6272 58° Northeast 366 421 18,800 -1,925 Descending FlightAware ADS-B
07:29AM 34.5872 139.6588 58° Northeast 367 422 18,300 -1,700 Descending FlightAware ADS-B
07:29AM 34.6241 139.7293 58° Northeast 361 415 17,100 -1,610 Descending FlightAware ADS-B
07:30AM 34.6538 139.7854 57° Northeast 358 412 16,100 -1,650 Descending FlightAware ADS-B
07:31AM 34.6956 139.8624 49° Northeast 345 397 14,900 -1,525 Descending FlightAware ADS-B
07:31AM 34.7205 139.8867 35° Northeast 338 389 14,600 -885 Descending FlightAware ADS-B
07:32AM 34.7629 139.9237 36° Northeast 338 389 14,000 -975 Descending FlightAware ADS-B
07:32AM 34.8221 139.9755 37° Northeast 327 376 13,300 -975 Descending FlightAware ADS-B
07:33AM 34.8622 140.0102 35° Northeast 334 384 12,700 -917 Descending FlightAware ADS-B
07:33AM 34.9016 140.0439 35° Northeast 332 382 12,200 -1,231 Descending FlightAware ADS-B
07:34AM 34.9227 140.0623 37° Northeast 321 369 11,900 -955 Descending FlightAware ADS-B
07:34AM 34.9571 140.0921 34° Northeast 329 379 11,500 -900 Descending FlightAware ADS-B
07:34AM 34.9734 140.1016 18° North 319 367 11,300 -968 Descending FlightAware ADS-B
07:35AM 34.9983 140.1061 North 318 366 11,000 -667 Descending FlightAware ADS-B
07:35AM 35.0640 140.1140 North 295 339 10,500 -904 Descending FlightAware ADS-B
07:36AM 35.1151 140.1204 North 292 336 9,900 -933 Descending FlightAware ADS-B
07:36AM 35.1238 140.1214 North 293 337 9,800 -766 Descending FlightAware ADS-B
07:37AM 35.1657 140.1261 North 289 333 9,300 -933 Descending FlightAware ADS-B
07:37AM 35.1863 140.1283 North 291 335 9,100 -750 Descending FlightAware ADS-B
07:37AM 35.1963 140.1293 North 290 334 9,000 -800 Descending FlightAware ADS-B (RJTF)
07:37AM 35.2068 140.1303 North 290 334 8,900 -800 Descending FlightAware ADS-B
07:37AM 35.2158 140.1312 North 288 331 8,800 -783 Descending FlightAware ADS-B (RJTF)
07:38AM 35.2363 140.1331 North 287 330 8,600 -857 Descending FlightAware ADS-B (RJTF)
07:38AM 35.2459 140.1335 North 287 330 8,500 -750 Descending FlightAware ADS-B
07:38AM 35.2587 140.1340 North 287 330 8,400 -800 Descending FlightAware ADS-B (RJTF)
07:38AM 35.2842 140.1350 North 286 329 8,100 -720 Descending FlightAware ADS-B
07:38AM 35.2908 140.1352 North 286 329 8,100 -800 Level FlightAware ADS-B (RJTF)
07:38AM 35.3059 140.1359 North 287 330 7,900 -923 Descending FlightAware ADS-B
07:39AM 35.3260 140.1370 North 284 327 7,700 -774 Descending FlightAware ADS-B
07:39AM 35.3458 140.1380 North 285 328 7,500 -947 Descending FlightAware ADS-B
07:39AM 35.3503 140.1382 North 285 328 7,400 -800 Descending FlightAware ADS-B (RJTF)
07:39AM 35.3664 140.1391 North 285 328 7,300 -750 Descending FlightAware ADS-B
07:39AM 35.3823 140.1400 North 285 328 7,100 -800 Descending FlightAware ADS-B (RJTF)
07:39AM 35.3860 140.1402 North 285 328 7,100 -706 Level FlightAware ADS-B
07:40AM 35.4002 140.1410 North 285 328 6,900 -800 Descending FlightAware ADS-B (RJTF)
07:40AM 35.4066 140.1413 North 285 328 6,900 -706 Level FlightAware ADS-B
07:40AM 35.4271 140.1424 North 283 326 6,700 -828 Descending FlightAware ADS-B (RJTF)
07:40AM 35.4445 140.1434 North 279 321 6,500 -706 Descending FlightAware ADS-B
07:40AM 35.4492 140.1436 North 279 321 6,500 -400 Level FlightAware ADS-B (RJTF)
07:40AM 35.4636 140.1443 North 278 320 6,400 -480 Descending FlightAware ADS-B
07:41AM 35.4788 140.1452 North 275 316 6,300 -800 Descending FlightAware ADS-B (RJTF)
07:41AM 35.4839 140.1455 North 273 314 6,200 -706 Descending FlightAware ADS-B
07:41AM 35.4984 140.1462 North 266 306 6,100 -316 Descending FlightAware ADS-B
07:41AM 35.5070 140.1467 North 265 305 6,100 -353 Level FlightAware ADS-B (RJTF)
07:41AM 35.5239 140.1476 North 258 297 6,000 -444 Descending FlightAware ADS-B (RJTF)
07:41AM 35.5370 140.1483 North 254 292 5,900 -462 Descending FlightAware ADS-B
07:42AM 35.5543 140.1493 North 258 297 5,800 -800 Descending FlightAware ADS-B (RJTF)
07:42AM 35.5562 140.1494 North 253 291 5,700 -800 Descending FlightAware ADS-B
07:42AM 35.5721 140.1502 North 251 289 5,600 -400 Descending FlightAware ADS-B (RJTF)
07:42AM 35.5728 140.1502 North 250 288 5,600 -353 Level FlightAware ADS-B
07:42AM 35.5915 140.1512 North 249 287 5,500 -353 Descending FlightAware ADS-B
07:42AM 35.5841 140.1509 North 249 287 5,500 -400 Level FlightAware ADS-B (RJTF)
07:42AM 35.6079 140.1521 North 248 285 5,400 -429 Descending FlightAware ADS-B
07:43AM 35.6256 140.1531 North 248 285 5,300 -286 Descending FlightAware ADS-B
07:43AM 35.6327 140.1534 North 248 285 5,300  Level FlightAware ADS-B (RJTF)
07:43AM 35.6430 140.1540 North 248 285 5,300  Level FlightAware ADS-B
07:43AM 35.6696 140.1539 351° North 249 287 5,300  Level FlightAware ADS-B (RJTF)
07:43AM 35.6743 140.1526 346° North 249 287 5,300  Level FlightAware ADS-B (RJTF)
07:44AM 35.6918 140.1442 335° Northwest 248 285 5,300  Level FlightAware ADS-B
07:44AM 35.7090 140.1346 336° Northwest 248 285 5,300  Level FlightAware ADS-B
07:44AM 35.7245 140.1259 336° Northwest 249 287 5,300  Level FlightAware ADS-B
07:44AM 35.7403 140.1169 335° Northwest 250 288 5,300  Level FlightAware ADS-B
07:45AM 35.7557 140.1081 335° Northwest 251 289 5,300  Level FlightAware ADS-B
07:45AM 35.7876 140.0900 336° Northwest 251 289 5,300  Level FlightAware ADS-B
07:45AM 35.8031 140.0805 328° Northwest 245 282 5,300  Level FlightAware ADS-B
07:46AM 35.8145 140.0653 300° West 230 265 5,300  Level FlightAware ADS-B
07:46AM 35.8190 140.0489 277° West 217 250 5,300  Level FlightAware ADS-B
07:46AM 35.8175 140.0304 253° West 221 254 5,300  Level FlightAware ADS-B
07:46AM 35.8114 140.0126 246° West 224 258 5,300 -194 Level FlightAware ADS-B
07:47AM 35.8049 139.9945 245° Southwest 219 252 5,200  Descending FlightAware ADS-B
07:47AM 35.7981 139.9791 232° Southwest 202 232 5,300 207 Climbing FlightAware ADS-B
07:47AM 35.7882 139.9675 215° Southwest 200 230 5,300 -414 Level FlightAware ADS-B
07:47AM 35.7764 139.9576 217° Southwest 204 235 5,100 -968 Descending FlightAware ADS-B
07:48AM 35.7661 139.9482 216° Southwest 203 234 4,800 -968 Descending FlightAware ADS-B
07:48AM 35.7536 139.9373 214° Southwest 200 230 4,600 -1,000 Descending FlightAware ADS-B
07:48AM 35.7422 139.9275 215° Southwest 202 232 4,300 -1,091 Descending FlightAware ADS-B
07:49AM 35.7205 139.9088 215° Southwest 202 232 3,800 -1,091 Descending FlightAware ADS-B
07:49AM 35.7084 139.8984 215° Southwest 201 231 3,500 -1,161 Descending FlightAware ADS-B
07:49AM 35.6968 139.8886 216° Southwest 198 228 3,200 -968 Descending FlightAware ADS-B
07:49AM 35.6850 139.8782 215° Southwest 193 222 3,000 -818 Descending FlightAware ADS-B
07:50AM 35.6664 139.8621 216° Southwest 165 190 2,600 -947 Descending FlightAware ADS-B
07:50AM 35.6600 139.8567 216° Southwest 163 188 2,400 -1,200 Descending FlightAware ADS-B (RJTF)
07:50AM 35.6571 139.8541 215° Southwest 163 188 2,300 -857 Descending FlightAware ADS-B
07:50AM 35.6525 139.8502 216° Southwest 162 186 2,200 -750 Descending FlightAware ADS-B (RJTF)
07:50AM 35.6467 139.8451 216° Southwest 163 188 2,100 -750 Descending FlightAware ADS-B
07:51AM 35.6416 139.8408 214° Southwest 166 191 2,000 -800 Descending FlightAware ADS-B (RJTF)
07:51AM 35.6369 139.8370 215° Southwest 168 193 1,900 -800 Descending FlightAware ADS-B
07:51AM 35.6320 139.8327 215° Southwest 168 193 1,800 -1,636 Descending FlightAware ADS-B (RJTF)
07:51AM 35.6252 139.8270 216° Southwest 160 184 1,600 -857 Descending FlightAware ADS-B
07:51AM 35.6230 139.8251 215° Southwest 161 185 1,600 -316 Level FlightAware ADS-B (RJTF)
07:51AM 35.6184 139.8211 216° Southwest 153 176 1,500 -750 Descending FlightAware ADS-B
07:51AM 35.6134 139.8168 216° Southwest 144 166 1,400 -800 Descending FlightAware ADS-B (RJTF)
07:51AM 35.6109 139.8145 216° Southwest 139 160 1,300 -800 Descending FlightAware ADS-B
07:52AM 35.6060 139.8102 217° Southwest 137 158 1,200 -800 Descending FlightAware ADS-B (RJTF)
07:52AM 35.6028 139.8074 215° Southwest 138 159 1,100 -600 Descending FlightAware ADS-B
07:52AM 35.5952 139.8009 216° Southwest 137 158 1,000 -800 Descending FlightAware ADS-B (RJTF)
07:52AM 35.5941 139.8000 215° Southwest 137 158 900 -1,000 Descending FlightAware ADS-B
07:52AM 35.5815 139.7892 215° Southwest 138 159 700 -545 Descending FlightAware ADS-B
07:52AM 35.5773 139.7856 215° Southwest 138 159 600 -727 Descending FlightAware ADS-B
07:53AM 35.5648 139.7748 215° Southwest 139 160 300 -1,125 Descending FlightAware ADS-B

Login

Don't have an account? Register now (free) for customized features, flight alerts, and more!